Time;durP1;ratioP1;P1;durP2;ratioP2;P2;SDS_P1;SDS_P2;PMS_P1;PMS_P2;Temp;Humidity;BMP_temperature;BMP_pressure;BME280_temperature;BME280_humidity;BME280_pressure;Samples;Min_cycle;Max_cycle;Signal;HPM_P1;HPM_P2
2022/04/26 03:36:20;;;;;;;;;;;;;;;14.54;58.45;101445.91;1026520;29;808;-61
2022/04/26 03:37:12;;;;;;;;;;;;;;;14.55;58.48;101447.63;1021243;29;825;-60
2022/04/26 03:38:03;;;;;;;;;;;;;;;14.54;57.97;101448.59;1022540;29;698;-62
2022/04/26 03:38:53;;;;;;;;;;;;;;;14.55;58.52;101460.19;1024865;29;723;-61
2022/04/26 03:39:44;;;;;;;;;;;;;;;14.55;57.73;101452.13;1024955;29;927;-61
2022/04/26 03:40:34;;;;;;;;;;;;;;;14.55;58.49;101462.88;1022665;29;1431;-61
2022/04/26 03:41:25;;;;;;;;;;;;;;;14.54;58.46;101461.16;1023606;29;675;-58
2022/04/26 03:42:15;;;;;;;;;;;;;;;14.53;58.29;101462.97;1025008;29;1307;-60
2022/04/26 03:43:06;;;;;;;;;;;;;;;14.54;58.46;101461.16;1025001;29;663;-62
2022/04/26 03:43:56;;;;;;;;;;;;;;;14.53;58.13;101454.94;1025084;29;667;-62
2022/04/26 03:44:47;;;;;;;;;;;;;;;14.54;58.47;101462.00;1024212;29;1651;-62
2022/04/26 03:45:37;;;;;;;;;;;;;;;14.53;58.58;101456.75;1022386;28;678;-61
2022/04/26 03:46:30;;;;;;;;;;;;;;;14.53;57.80;101459.44;1021677;29;872;-61
2022/04/26 03:47:21;;;;;;;;;;;;;;;14.54;57.79;101461.16;1025490;29;726;-59
2022/04/26 03:48:11;;;;;;;;;;;;;;;14.55;58.48;101460.19;1025561;28;643;-60
2022/04/26 03:49:01;;;;;;;;;;;;;;;14.54;57.92;101458.47;1024628;29;675;-59
2022/04/26 03:49:52;;;;;;;;;;;;;;;14.53;58.06;101462.13;1025526;28;772;-60
2022/04/26 03:50:43;;;;;;;;;;;;;;;14.52;58.31;101457.72;1024719;28;1262;-60
2022/04/26 03:51:33;;;;;;;;;;;;;;;14.53;57.96;101456.75;1020724;29;668;-60
2022/04/26 03:52:23;;;;;;;;;;;;;;;14.51;57.91;101462.22;1022134;29;1119;-60
2022/04/26 03:53:14;;;;;;;;;;;;;;;14.52;58.53;101460.41;1022298;28;1707;-60
2022/04/26 03:54:04;;;;;;;;;;;;;;;14.50;58.46;101460.53;1020598;29;655;-60
2022/04/26 03:54:55;;;;;;;;;;;;;;;14.51;58.63;101462.22;1022892;28;686;-60
2022/04/26 03:55:45;;;;;;;;;;;;;;;14.51;58.39;101464.06;1021292;29;668;-60
2022/04/26 03:56:35;;;;;;;;;;;;;;;14.52;58.01;101463.06;1022450;28;662;-60
2022/04/26 03:57:26;;;;;;;;;;;;;;;14.52;58.64;101463.94;1021395;29;694;-60
2022/04/26 03:58:16;;;;;;;;;;;;;;;14.52;58.58;101463.06;1020597;29;628;-60
2022/04/26 03:59:07;;;;;;;;;;;;;;;14.51;58.12;101459.53;1030487;28;1163;-60
2022/04/26 03:59:57;;;;;;;;;;;;;;;14.51;58.06;101456.84;1032744;28;701;-60
2022/04/26 04:00:48;;;;;;;;;;;;;;;14.51;58.70;101462.22;1032511;28;706;-60
2022/04/26 04:01:38;;;;;;;;;;;;;;;14.52;58.60;101463.06;1028818;28;753;-61
2022/04/26 04:02:28;;;;;;;;;;;;;;;14.52;58.09;101463.06;1028336;28;726;-60
2022/04/26 04:03:19;;;;;;;;;;;;;;;14.52;58.34;101465.75;1032568;28;847;-60
2022/04/26 04:04:09;;;;;;;;;;;;;;;14.52;58.17;101460.41;1032829;28;680;-61
2022/04/26 04:05:00;;;;;;;;;;;;;;;14.53;57.94;101464.78;1032591;28;698;-60
2022/04/26 04:05:50;;;;;;;;;;;;;;;14.52;58.57;101460.41;1028857;28;733;-60
2022/04/26 04:06:40;;;;;;;;;;;;;;;14.52;57.98;101463.06;1028138;28;718;-60
2022/04/26 04:07:31;;;;;;;;;;;;;;;14.50;57.85;101462.34;1032587;28;647;-60
2022/04/26 04:08:21;;;;;;;;;;;;;;;14.51;57.61;101467.59;1032417;28;657;-61
2022/04/26 04:09:12;;;;;;;;;;;;;;;14.51;58.24;101462.22;1032616;28;683;-61
2022/04/26 04:10:02;;;;;;;;;;;;;;;14.52;58.57;101465.75;1032613;28;663;-61
2022/04/26 04:10:52;;;;;;;;;;;;;;;14.51;57.88;101466.75;1032426;28;668;-61
2022/04/26 04:11:43;;;;;;;;;;;;;;;14.51;58.19;101467.59;1032577;28;670;-60
2022/04/26 04:12:33;;;;;;;;;;;;;;;14.48;58.15;101465.16;1031827;28;711;-61
2022/04/26 04:13:24;;;;;;;;;;;;;;;14.50;57.98;101465.03;1032676;28;644;-61
2022/04/26 04:14:14;;;;;;;;;;;;;;;14.49;58.24;101464.19;1032632;28;741;-61
2022/04/26 04:15:05;;;;;;;;;;;;;;;14.51;58.01;101466.75;1032227;28;1670;-61
2022/04/26 04:15:56;;;;;;;;;;;;;;;14.51;57.79;101464.91;1034069;28;729;-61
2022/04/26 04:16:47;;;;;;;;;;;;;;;14.51;58.32;101469.44;1033500;28;1674;-61
2022/04/26 04:17:37;;;;;;;;;;;;;;;14.51;58.34;101472.94;1033658;28;717;-61
2022/04/26 04:19:37;;;;;;;;;;;;;;;14.49;58.45;101474.91;1033695;28;826;-60
2022/04/26 04:20:29;;;;;;;;;;;;;;;14.49;58.35;101469.53;1032549;28;718;-60
2022/04/26 04:21:23;;;;;;;;;;;;;;;14.49;58.21;101474.91;1032549;28;690;-60
2022/04/26 04:22:16;;;;;;;;;;;;;;;14.49;58.44;101474.91;1032442;28;746;-60
2022/04/26 04:23:07;;;;;;;;;;;;;;;14.51;58.16;101466.75;1033077;28;706;-60
2022/04/26 04:23:57;;;;;;;;;;;;;;;14.49;57.96;101469.53;1033069;28;627;-61
2022/04/26 04:24:47;;;;;;;;;;;;;;;14.51;57.86;101467.59;1034700;28;714;-60
2022/04/26 04:25:38;;;;;;;;;;;;;;;14.50;58.37;101473.94;1036573;28;710;-60
2022/04/26 04:26:28;;;;;;;;;;;;;;;14.49;57.82;101471.38;1034612;28;671;-60
2022/04/26 04:27:19;;;;;;;;;;;;;;;14.47;58.34;101468.78;1033031;28;662;-60
2022/04/26 04:28:09;;;;;;;;;;;;;;;14.47;58.32;101474.16;1032379;28;706;-60
2022/04/26 04:29:00;;;;;;;;;;;;;;;14.47;58.04;101471.47;1033624;28;694;-61
2022/04/26 04:29:51;;;;;;;;;;;;;;;14.47;58.03;101475.97;1032214;28;776;-60
2022/04/26 04:30:42;;;;;;;;;;;;;;;14.48;58.10;101472.34;1032472;28;783;-60
2022/04/26 04:31:33;;;;;;;;;;;;;;;14.46;57.70;101467.06;1032481;28;683;-60
2022/04/26 04:32:23;;;;;;;;;;;;;;;14.47;58.05;101478.66;1029845;28;891;-60
2022/04/26 04:33:13;;;;;;;;;;;;;;;14.45;58.10;101473.41;1032937;28;800;-60
2022/04/26 04:34:04;;;;;;;;;;;;;;;14.45;57.81;101473.41;1031238;28;1279;-62
2022/04/26 04:34:54;;;;;;;;;;;;;;;14.46;58.17;101475.13;1031742;28;1017;-60
2022/04/26 04:35:45;;;;;;;;;;;;;;;14.45;58.04;101481.44;1029962;28;666;-61
2022/04/26 04:36:36;;;;;;;;;;;;;;;14.45;58.05;101478.78;1030071;28;722;-61
2022/04/26 04:37:26;;;;;;;;;;;;;;;14.46;58.45;101475.13;1030097;28;646;-60
2022/04/26 04:38:17;;;;;;;;;;;;;;;14.47;58.09;101481.34;1029567;28;713;-60
2022/04/26 04:39:07;;;;;;;;;;;;;;;14.46;58.41;101485.84;1029624;28;726;-60
2022/04/26 04:39:57;;;;;;;;;;;;;;;14.45;58.28;101483.28;1029327;28;706;-60
2022/04/26 04:40:48;;;;;;;;;;;;;;;14.46;58.50;101493.03;1032026;28;1266;-60
2022/04/26 04:41:38;;;;;;;;;;;;;;;14.44;58.15;101484.25;1033377;28;808;-60
2022/04/26 04:42:29;;;;;;;;;;;;;;;14.45;57.96;101486.81;1033137;28;639;-60
2022/04/26 04:43:19;;;;;;;;;;;;;;;14.45;58.51;101492.19;1034899;28;1199;-60
2022/04/26 04:44:10;;;;;;;;;;;;;;;14.45;58.59;101483.28;1032537;28;1085;-60
2022/04/26 04:45:02;;;;;;;;;;;;;;;14.44;58.15;101484.25;1033116;28;1605;-60
2022/04/26 04:45:52;;;;;;;;;;;;;;;14.44;58.62;101489.59;1036730;28;1266;-60
2022/04/26 04:46:43;;;;;;;;;;;;;;;14.44;58.25;101493.13;1036439;28;1207;-60
2022/04/26 04:47:33;;;;;;;;;;;;;;;14.44;57.98;101493.13;1037251;28;1193;-60
2022/04/26 04:48:23;;;;;;;;;;;;;;;14.44;58.57;101497.66;1037350;28;1914;-60
2022/04/26 04:49:14;;;;;;;;;;;;;;;14.44;57.84;101492.28;1035481;28;1252;-61
2022/04/26 04:50:04;;;;;;;;;;;;;;;14.45;58.27;101496.69;1036415;28;1131;-61
2022/04/26 04:50:55;;;;;;;;;;;;;;;14.46;57.96;101495.72;1035542;28;1049;-61
2022/04/26 04:51:45;;;;;;;;;;;;;;;14.46;58.06;101495.72;1037900;28;1150;-61
2022/04/26 04:52:36;;;;;;;;;;;;;;;14.46;57.81;101501.09;1036931;28;1199;-61
2022/04/26 04:53:26;;;;;;;;;;;;;;;14.46;58.39;101501.09;1037912;28;1135;-61
2022/04/26 04:54:17;;;;;;;;;;;;;;;14.44;58.40;101509.22;1036512;28;1233;-61
2022/04/26 04:55:08;;;;;;;;;;;;;;;14.44;58.00;101503.88;1037336;28;1118;-60
2022/04/26 04:55:58;;;;;;;;;;;;;;;14.44;58.17;101506.56;1037297;28;1151;-61
2022/04/26 04:56:48;;;;;;;;;;;;;;;14.43;58.37;101512.88;1036882;28;1138;-61
2022/04/26 04:57:39;;;;;;;;;;;;;;;14.43;57.75;101509.34;1032610;28;1139;-60
2022/04/26 04:58:29;;;;;;;;;;;;;;;14.44;58.37;101514.59;1032294;28;1096;-61
2022/04/26 04:59:20;;;;;;;;;;;;;;;14.45;58.29;101515.47;1031595;28;1128;-60
2022/04/26 05:00:10;;;;;;;;;;;;;;;14.45;58.42;101516.31;1031413;28;1336;-61
2022/04/26 05:01:01;;;;;;;;;;;;;;;14.45;58.35;101515.47;1036583;28;1129;-60
2022/04/26 05:01:51;;;;;;;;;;;;;;;14.44;57.93;101519.09;1036685;28;1084;-60
2022/04/26 05:02:41;;;;;;;;;;;;;;;14.43;58.46;101523.59;1037098;28;1079;-61
2022/04/26 05:03:32;;;;;;;;;;;;;;;14.44;58.54;101519.09;1033451;28;701;-61
2022/04/26 05:04:22;;;;;;;;;;;;;;;14.43;57.82;101520.06;1032555;28;668;-60
2022/04/26 05:05:13;;;;;;;;;;;;;;;14.42;58.46;101521.88;1032735;28;682;-60
2022/04/26 05:06:03;;;;;;;;;;;;;;;14.44;58.16;101519.09;1033580;28;1274;-61
2022/04/26 05:06:53;;;;;;;;;;;;;;;14.44;57.79;101521.78;1034147;28;1084;-61
2022/04/26 05:07:44;;;;;;;;;;;;;;;14.42;58.00;101521.88;1036723;28;1183;-61
2022/04/26 05:08:34;;;;;;;;;;;;;;;14.42;58.00;101521.88;1036811;28;1957;-61
2022/04/26 05:09:25;;;;;;;;;;;;;;;14.43;57.85;101525.44;1036544;28;1127;-60
2022/04/26 05:10:15;;;;;;;;;;;;;;;14.42;58.78;101516.53;1035278;28;1084;-61
2022/04/26 05:11:06;;;;;;;;;;;;;;;14.44;58.36;101524.47;1033073;28;1136;-60
2022/04/26 05:11:56;;;;;;;;;;;;;;;14.44;58.37;101528.00;1033616;28;724;-59
2022/04/26 05:12:47;;;;;;;;;;;;;;;14.43;58.65;101525.44;1033175;28;652;-60
2022/04/26 05:13:37;;;;;;;;;;;;;;;14.43;58.01;101523.59;1033027;28;695;-60
2022/04/26 05:14:27;;;;;;;;;;;;;;;14.48;58.25;101521.47;1036117;28;1279;-60
2022/04/26 05:15:18;;;;;;;;;;;;;;;14.50;58.23;101530.25;1032478;28;1139;-60
2022/04/26 05:16:08;;;;;;;;;;;;;;;14.53;58.11;101530.03;1032942;28;1216;-61
2022/04/26 05:16:59;;;;;;;;;;;;;;;14.52;58.20;101527.44;1037150;28;1172;-61
2022/04/26 05:17:49;;;;;;;;;;;;;;;14.55;57.70;101529.91;1036894;28;1281;-61
2022/04/26 05:18:39;;;;;;;;;;;;;;;14.56;58.11;101537.00;1036247;28;1180;-61
2022/04/26 05:19:30;;;;;;;;;;;;;;;14.59;57.79;101534.09;1036398;28;1196;-61
2022/04/26 05:20:20;;;;;;;;;;;;;;;14.61;58.19;101537.53;1035896;28;1204;-61
2022/04/26 05:21:13;;;;;;;;;;;;;;;14.75;57.90;101529.38;1037272;28;1295;-61
2022/04/26 05:22:03;;;;;;;;;;;;;;;14.90;57.82;101544.34;1036285;28;1197;-61
2022/04/26 05:25:13;;;;;;;;;;;;;;;15.34;56.79;101532.22;1037672;28;1172;-60
2022/04/26 05:26:03;;;;;;;;;;;;;;;15.45;57.00;101532.25;1037611;28;1105;-60
2022/04/26 05:26:53;;;;;;;;;;;;;;;15.49;57.21;101531.06;1037343;28;1156;-61
2022/04/26 05:27:44;;;;;;;;;;;;;;;15.69;57.30;101534.13;1036966;28;1151;-61
2022/04/26 05:28:34;;;;;;;;;;;;;;;15.89;56.88;101536.16;1037748;28;1967;-62
2022/04/26 05:29:25;;;;;;;;;;;;;;;16.00;56.71;101533.50;1036659;28;1119;-62
2022/04/26 05:30:15;;;;;;;;;;;;;;;16.08;56.89;101536.47;1037727;28;1140;-62
2022/04/26 05:31:07;;;;;;;;;;;;;;;16.23;56.25;101543.34;1036646;28;1088;-62
2022/04/26 05:31:57;;;;;;;;;;;;;;;16.30;56.02;101538.38;1036328;28;1255;-62
2022/04/26 05:32:47;;;;;;;;;;;;;;;16.51;56.05;101546.56;1035631;28;1160;-62
2022/04/26 05:33:38;;;;;;;;;;;;;;;16.51;55.72;101544.72;1037224;28;1192;-62
2022/04/26 05:34:28;;;;;;;;;;;;;;;16.56;55.82;101547.94;1037112;28;1165;-61
2022/04/26 05:35:21;;;;;;;;;;;;;;;16.64;56.05;101545.53;1038657;28;1292;-62
2022/04/26 05:36:11;;;;;;;;;;;;;;;16.67;55.78;101547.94;1040969;28;1169;-62
2022/04/26 05:37:01;;;;;;;;;;;;;;;16.75;55.76;101544.66;1042341;28;830;-62
2022/04/26 05:37:52;;;;;;;;;;;;;;;16.81;55.88;101549.56;1041813;28;1127;-62
2022/04/26 05:38:42;;;;;;;;;;;;;;;16.96;55.67;101550.16;1040271;28;1319;-62
2022/04/26 05:39:32;;;;;;;;;;;;;;;16.98;55.51;101549.06;1036731;28;1378;-62
2022/04/26 05:40:23;;;;;;;;;;;;;;;17.05;55.28;101551.25;1036560;28;1182;-61
2022/04/26 05:41:13;;;;;;;;;;;;;;;16.93;55.33;101553.97;1032726;28;609;-61
2022/04/26 05:42:04;;;;;;;;;;;;;;;16.54;54.36;101551.72;1033185;28;631;-61
2022/04/26 05:42:54;;;;;;;;;;;;;;;16.37;54.07;101557.56;1033908;28;646;-62
2022/04/26 05:43:45;;;;;;;;;;;;;;;16.25;54.75;101549.47;1032453;28;694;-62
2022/04/26 05:44:38;;;;;;;;;;;;;;;16.40;55.48;101555.50;1035162;28;1690;-62
2022/04/26 05:45:28;;;;;;;;;;;;;;;16.51;55.71;101558.19;1037939;28;674;-62
2022/04/26 05:46:19;;;;;;;;;;;;;;;16.64;55.13;101550.91;1037252;28;1638;-62
2022/04/26 05:47:09;;;;;;;;;;;;;;;16.64;55.29;101558.13;1033231;28;619;-62
2022/04/26 05:48:00;;;;;;;;;;;;;;;16.32;53.84;101558.75;1032281;28;650;-61
2022/04/26 05:48:50;;;;;;;;;;;;;;;16.00;55.26;101557.69;1032564;28;1906;-62
2022/04/26 05:49:41;;;;;;;;;;;;;;;16.17;55.73;101557.25;1033412;28;1182;-61
2022/04/26 05:50:31;;;;;;;;;;;;;;;16.31;55.31;101550.81;1037822;28;1197;-61
2022/04/26 05:51:22;;;;;;;;;;;;;;;16.57;55.04;101555.03;1037279;28;638;-61
2022/04/26 05:52:12;;;;;;;;;;;;;;;16.71;54.98;101547.72;1037298;28;653;-61
2022/04/26 05:53:03;;;;;;;;;;;;;;;16.87;54.37;101564.34;1034187;28;693;-62
2022/04/26 05:53:53;;;;;;;;;;;;;;;16.96;54.37;101556.41;1034167;28;1677;-62
2022/04/26 05:54:44;;;;;;;;;;;;;;;17.02;54.27;101558.59;1035722;28;1176;-62
2022/04/26 05:55:34;;;;;;;;;;;;;;;17.00;54.18;101563.28;1036823;28;651;-62
2022/04/26 05:56:24;;;;;;;;;;;;;;;17.11;54.23;101561.53;1036712;28;1180;-62
2022/04/26 05:57:15;;;;;;;;;;;;;;;17.14;54.27;101550.53;1036584;28;690;-61
2022/04/26 05:58:05;;;;;;;;;;;;;;;17.22;53.72;101561.50;1036002;28;1455;-61
2022/04/26 05:58:56;;;;;;;;;;;;;;;17.23;54.14;101568.59;1036931;28;1279;-62
2022/04/26 05:59:46;;;;;;;;;;;;;;;17.14;54.55;101564.84;1037815;28;1184;-61
2022/04/26 06:00:36;;;;;;;;;;;;;;;16.03;52.56;101559.31;1036456;28;757;-61
2022/04/26 06:01:27;;;;;;;;;;;;;;;15.21;53.88;101569.00;1036635;28;685;-61
2022/04/26 06:02:17;;;;;;;;;;;;;;;14.69;54.91;101561.97;1032179;28;689;-61
2022/04/26 06:03:08;;;;;;;;;;;;;;;14.57;54.82;101561.03;1032571;28;659;-61
2022/04/26 06:03:58;;;;;;;;;;;;;;;14.41;55.92;101562.22;1033099;28;1282;-61
2022/04/26 06:04:49;;;;;;;;;;;;;;;14.46;55.34;101566.31;1037340;28;756;-62
2022/04/26 06:05:39;;;;;;;;;;;;;;;14.19;55.51;101569.03;1036645;28;732;-61
2022/04/26 06:06:30;;;;;;;;;;;;;;;14.18;55.30;101567.31;1037177;28;928;-60
2022/04/26 06:07:20;;;;;;;;;;;;;;;14.06;56.57;101567.28;1036524;28;740;-61
2022/04/26 06:08:10;;;;;;;;;;;;;;;14.15;56.40;101578.22;1035614;28;1338;-61
2022/04/26 06:09:01;;;;;;;;;;;;;;;13.99;56.37;101566.84;1033499;28;701;-60
2022/04/26 06:09:53;;;;;;;;;;;;;;;14.00;55.85;101570.38;1033284;28;650;-60
2022/04/26 06:10:44;;;;;;;;;;;;;;;13.82;56.58;101570.66;1032903;28;643;-60
2022/04/26 06:11:34;;;;;;;;;;;;;;;13.72;57.00;101574.91;1036177;28;690;-61
2022/04/26 06:12:28;;;;;;;;;;;;;;;13.65;57.37;101568.25;1037726;28;689;-61
2022/04/26 06:13:18;;;;;;;;;;;;;;;13.31;57.56;101574.09;1037831;28;679;-61
2022/04/26 06:14:08;;;;;;;;;;;;;;;13.14;58.63;101580.50;1037740;28;658;-61
2022/04/26 06:14:59;;;;;;;;;;;;;;;13.28;57.88;101575.13;1036848;28;1619;-61
2022/04/26 06:15:49;;;;;;;;;;;;;;;13.37;58.15;101574.56;1037890;28;1483;-61
2022/04/26 06:16:40;;;;;;;;;;;;;;;13.52;58.06;101578.03;1037965;28;653;-61
2022/04/26 06:17:32;;;;;;;;;;;;;;;13.61;57.59;101582.81;1037986;28;685;-61
2022/04/26 06:18:22;;;;;;;;;;;;;;;13.46;57.66;101573.94;1036141;28;654;-60
2022/04/26 06:19:13;;;;;;;;;;;;;;;13.50;56.83;101575.47;1038325;28;622;-61
2022/04/26 06:20:03;;;;;;;;;;;;;;;13.48;57.55;101584.56;1035710;28;1090;-60
2022/04/26 06:20:53;;;;;;;;;;;;;;;13.45;57.26;101576.72;1037684;28;704;-60
2022/04/26 06:21:44;;;;;;;;;;;;;;;13.38;57.60;101583.44;1037713;28;736;-60
2022/04/26 06:22:34;;;;;;;;;;;;;;;13.40;57.88;101579.72;1033299;28;658;-59
2022/04/26 06:23:25;;;;;;;;;;;;;;;13.32;57.55;101582.03;1033315;28;686;-60
2022/04/26 06:24:15;;;;;;;;;;;;;;;13.26;57.10;101582.41;1036905;28;1368;-60
2022/04/26 06:25:05;;;;;;;;;;;;;;;13.29;58.09;101586.69;1034404;28;1145;-60
2022/04/26 06:25:56;;;;;;;;;;;;;;;13.18;57.21;101582.06;1036419;28;1117;-60
2022/04/26 06:26:46;;;;;;;;;;;;;;;13.05;57.77;101581.09;1036601;28;693;-60
2022/04/26 06:27:37;;;;;;;;;;;;;;;12.95;58.29;101585.28;1036547;28;698;-59
2022/04/26 06:28:27;;;;;;;;;;;;;;;12.75;59.21;101582.03;1036367;28;710;-59
2022/04/26 06:29:18;;;;;;;;;;;;;;;12.88;59.26;101587.50;1036477;28;638;-61
2022/04/26 06:30:08;;;;;;;;;;;;;;;12.90;58.26;101588.25;1036518;28;607;-62
2022/04/26 06:30:58;;;;;;;;;;;;;;;13.02;59.06;101574.13;1036584;28;686;-62
2022/04/26 06:31:49;;;;;;;;;;;;;;;13.00;58.68;101583.19;1036513;28;634;-62
2022/04/26 06:32:42;;;;;;;;;;;;;;;13.11;57.65;101584.22;1036469;28;663;-62
2022/04/26 06:33:34;;;;;;;;;;;;;;;12.96;58.93;101587.00;1038222;28;678;-61
2022/04/26 06:34:24;;;;;;;;;;;;;;;12.95;58.24;101587.97;1037530;28;675;-61
2022/04/26 06:35:15;;;;;;;;;;;;;;;12.94;58.23;101596.94;1032692;28;686;-62
2022/04/26 06:36:06;;;;;;;;;;;;;;;12.79;58.88;101586.25;1032564;28;1103;-62
2022/04/26 06:36:56;;;;;;;;;;;;;;;12.66;58.68;101587.97;1036539;28;1016;-62
2022/04/26 06:37:47;;;;;;;;;;;;;;;12.70;58.34;101584.16;1036589;28;792;-62
2022/04/26 06:38:37;;;;;;;;;;;;;;;12.58;58.68;101584.91;1037205;28;1216;-62
2022/04/26 06:39:28;;;;;;;;;;;;;;;12.63;59.16;101588.16;1036995;28;694;-62
2022/04/26 06:40:19;;;;;;;;;;;;;;;12.41;59.17;101587.75;1032749;28;686;-62
2022/04/26 06:41:09;;;;;;;;;;;;;;;12.62;59.51;101597.13;1032202;28;632;-61
2022/04/26 06:41:59;;;;;;;;;;;;;;;12.71;58.33;101585.03;1036763;28;1091;-62
2022/04/26 06:42:50;;;;;;;;;;;;;;;12.80;58.22;101589.78;1036519;28;678;-63
2022/04/26 06:43:40;;;;;;;;;;;;;;;12.89;58.43;101589.22;1036512;28;588;-62
2022/04/26 06:44:31;;;;;;;;;;;;;;;12.89;58.05;101593.72;1036482;28;658;-62
2022/04/26 06:45:22;;;;;;;;;;;;;;;12.94;58.45;101591.59;1037120;28;665;-63
2022/04/26 06:46:12;;;;;;;;;;;;;;;12.81;58.99;101597.72;1037894;28;657;-62
2022/04/26 06:47:03;;;;;;;;;;;;;;;12.79;58.58;101602.31;1036774;28;749;-63
2022/04/26 06:47:54;;;;;;;;;;;;;;;12.63;58.16;101606.03;1037345;28;655;-62
2022/04/26 06:48:49;;;;;;;;;;;;;;;12.46;58.83;101602.56;1036638;28;1952;-61
2022/04/26 06:49:39;;;;;;;;;;;;;;;12.15;59.34;101602.69;1032724;28;698;-62
2022/04/26 06:50:29;;;;;;;;;;;;;;;12.14;60.33;101608.97;1037279;28;725;-62
2022/04/26 06:51:20;;;;;;;;;;;;;;;12.33;59.65;101608.75;1037015;28;851;-62
2022/04/26 06:52:10;;;;;;;;;;;;;;;12.29;59.78;101612.56;1037005;28;658;-62
2022/04/26 06:53:01;;;;;;;;;;;;;;;12.31;59.21;101611.50;1037054;28;653;-62
2022/04/26 06:53:51;;;;;;;;;;;;;;;12.34;59.61;101613.16;1036077;28;635;-62
2022/04/26 06:54:41;;;;;;;;;;;;;;;12.42;59.40;101618.88;1036172;28;1417;-62
2022/04/26 06:55:32;;;;;;;;;;;;;;;12.29;59.34;101617.91;1036812;28;1593;-63
2022/04/26 06:56:22;;;;;;;;;;;;;;;12.50;58.97;101613.94;1035941;28;1685;-63
2022/04/26 06:57:13;;;;;;;;;;;;;;;12.63;58.85;101614.91;1035883;28;686;-62
2022/04/26 06:58:04;;;;;;;;;;;;;;;12.58;59.43;101621.47;1035852;28;741;-62
2022/04/26 06:58:54;;;;;;;;;;;;;;;12.66;58.44;101621.88;1036047;28;677;-62
2022/04/26 06:59:44;;;;;;;;;;;;;;;12.88;58.40;101616.06;1038059;28;661;-63
2022/04/26 07:00:35;;;;;;;;;;;;;;;13.11;57.27;101620.81;1037499;28;673;-63
2022/04/26 07:01:25;;;;;;;;;;;;;;;13.15;56.91;101617.03;1037085;28;681;-62
2022/04/26 07:02:16;;;;;;;;;;;;;;;13.18;57.74;101619.53;1037069;28;689;-62
2022/04/26 07:03:06;;;;;;;;;;;;;;;13.31;57.25;101617.78;1037044;28;686;-62
2022/04/26 07:03:56;;;;;;;;;;;;;;;13.48;56.21;101627.41;1037143;28;694;-63
2022/04/26 07:04:47;;;;;;;;;;;;;;;13.58;56.17;101622.31;1036575;28;631;-62
2022/04/26 07:05:37;;;;;;;;;;;;;;;13.65;56.10;101623.63;1036427;28;643;-62
2022/04/26 07:06:28;;;;;;;;;;;;;;;13.89;55.73;101612.16;1037014;28;694;-63
2022/04/26 07:07:18;;;;;;;;;;;;;;;14.07;55.17;101620.78;1036994;28;713;-62
2022/04/26 07:08:09;;;;;;;;;;;;;;;14.17;54.63;101623.69;1036858;28;697;-63
2022/04/26 07:09:01;;;;;;;;;;;;;;;14.25;54.73;101622.22;1037043;28;1898;-63
2022/04/26 07:09:51;;;;;;;;;;;;;;;14.39;54.58;101623.09;1038535;28;709;-62
2022/04/26 07:10:42;;;;;;;;;;;;;;;14.50;54.73;101620.59;1037269;28;636;-62
2022/04/26 07:11:32;;;;;;;;;;;;;;;14.84;54.37;101613.72;1037947;28;662;-63
2022/04/26 07:12:23;;;;;;;;;;;;;;;15.29;53.63;101623.00;1038200;28;729;-63
2022/04/26 07:13:18;;;;;;;;;;;;;;;15.91;51.85;101614.88;1037265;28;639;-63
2022/04/26 07:14:09;;;;;;;;;;;;;;;16.38;50.91;101615.75;1038177;28;635;-63
2022/04/26 07:14:59;;;;;;;;;;;;;;;16.50;50.67;101617.50;1036741;28;664;-62
2022/04/26 07:15:49;;;;;;;;;;;;;;;16.53;51.08;101626.19;1037763;28;714;-62
2022/04/26 07:16:40;;;;;;;;;;;;;;;16.57;50.93;101621.44;1037776;28;709;-62
2022/04/26 07:17:31;;;;;;;;;;;;;;;16.64;50.88;101628.97;1038365;28;689;-63
2022/04/26 07:18:21;;;;;;;;;;;;;;;16.70;50.64;101621.34;1038225;28;664;-63
2022/04/26 07:19:11;;;;;;;;;;;;;;;16.84;50.44;101619.28;1038278;28;693;-62
2022/04/26 07:20:02;;;;;;;;;;;;;;;16.98;50.08;101624.47;1038359;28;666;-63
2022/04/26 07:20:53;;;;;;;;;;;;;;;17.21;49.80;101636.06;1037494;28;1321;-63
2022/04/26 07:21:46;;;;;;;;;;;;;;;17.48;50.03;101630.31;1036638;28;1033;-63
2022/04/26 07:22:37;;;;;;;;;;;;;;;17.59;49.77;101632.97;1038618;28;1155;-63
2022/04/26 07:23:27;;;;;;;;;;;;;;;17.55;49.54;101628.84;1038819;28;1147;-63
2022/04/26 07:24:17;;;;;;;;;;;;;;;17.70;49.40;101629.44;1037936;28;1428;-63
2022/04/26 07:25:08;;;;;;;;;;;;;;;17.80;48.92;101629.53;1037272;28;1172;-63
2022/04/26 07:25:59;;;;;;;;;;;;;;;17.91;49.86;101629.50;1038563;28;1273;-63
2022/04/26 07:26:50;;;;;;;;;;;;;;;17.98;49.98;101630.69;1038896;28;1113;-63
2022/04/26 07:27:40;;;;;;;;;;;;;;;17.97;49.78;101631.69;1037658;28;1186;-63
2022/04/26 07:28:31;;;;;;;;;;;;;;;17.99;49.17;101633.25;1038115;28;1203;-64
2022/04/26 07:29:21;;;;;;;;;;;;;;;18.00;49.66;101631.44;1036829;28;1187;-64
2022/04/26 07:30:12;;;;;;;;;;;;;;;18.10;49.43;101629.66;1037427;28;1208;-64
2022/04/26 07:31:02;;;;;;;;;;;;;;;18.09;50.04;101644.16;1037503;28;1192;-64
2022/04/26 07:31:52;;;;;;;;;;;;;;;18.16;49.08;101631.84;1038150;28;1245;-63
2022/04/26 07:35:01;;;;;;;;;;;;;;;18.25;50.11;101641.88;1036301;28;1289;-64
2022/04/26 07:35:51;;;;;;;;;;;;;;;18.31;49.73;101640.47;1038255;28;1355;-63
2022/04/26 07:36:42;;;;;;;;;;;;;;;18.37;49.87;101648.06;1033695;28;674;-63
2022/04/26 07:37:32;;;;;;;;;;;;;;;18.28;49.93;101641.59;1034354;28;634;-63
2022/04/26 07:38:23;;;;;;;;;;;;;;;18.28;50.43;101652.38;1036171;28;1293;-63
2022/04/26 07:39:14;;;;;;;;;;;;;;;18.16;50.48;101647.19;1035669;28;1196;-63
2022/04/26 07:40:05;;;;;;;;;;;;;;;18.10;50.88;101648.53;1033451;28;1169;-63
2022/04/26 07:40:55;;;;;;;;;;;;;;;17.97;50.66;101647.84;1034605;28;714;-63
2022/04/26 07:41:46;;;;;;;;;;;;;;;17.85;51.58;101643.50;1034451;28;638;-63
2022/04/26 07:42:36;;;;;;;;;;;;;;;17.80;51.31;101651.09;1037255;28;1250;-63
2022/04/26 07:43:26;;;;;;;;;;;;;;;17.85;51.06;101651.59;1037908;28;1152;-63
2022/04/26 07:44:17;;;;;;;;;;;;;;;17.82;51.93;101649.13;1037487;28;1067;-63
2022/04/26 07:45:07;;;;;;;;;;;;;;;17.95;51.75;101649.81;1036469;28;1165;-61
2022/04/26 07:45:58;;;;;;;;;;;;;;;18.14;51.04;101643.75;1037719;28;620;-63
2022/04/26 07:46:48;;;;;;;;;;;;;;;18.20;51.59;101644.09;1037829;28;662;-63
2022/04/26 07:47:39;;;;;;;;;;;;;;;18.23;51.77;101643.84;1037740;28;709;-64
2022/04/26 07:48:29;;;;;;;;;;;;;;;18.30;51.27;101644.16;1037670;28;714;-62
2022/04/26 07:49:20;;;;;;;;;;;;;;;18.15;51.04;101646.31;1037418;28;1287;-63
2022/04/26 07:50:11;;;;;;;;;;;;;;;18.14;51.23;101644.59;1034440;28;666;-63
2022/04/26 07:51:03;;;;;;;;;;;;;;;18.16;51.22;101644.47;1034837;28;699;-63
2022/04/26 07:51:53;;;;;;;;;;;;;;;18.17;51.55;101643.50;1035049;28;1211;-63
2022/04/26 07:52:44;;;;;;;;;;;;;;;18.16;51.47;101642.63;1037426;28;1449;-63
2022/04/26 07:53:34;;;;;;;;;;;;;;;18.28;52.02;101641.59;1037035;28;1266;-63
2022/04/26 07:54:26;;;;;;;;;;;;;;;18.31;51.25;101645.88;1038937;28;650;-64
2022/04/26 07:55:17;;;;;;;;;;;;;;;18.28;51.22;101644.28;1033840;28;632;-64
2022/04/26 07:56:09;;;;;;;;;;;;;;;18.34;50.96;101643.78;1033740;28;679;-64
2022/04/26 07:56:59;;;;;;;;;;;;;;;18.34;50.92;101651.88;1036849;28;677;-64
2022/04/26 07:57:50;;;;;;;;;;;;;;;18.36;51.13;101649.91;1037625;28;764;-65
2022/04/26 07:58:40;;;;;;;;;;;;;;;18.37;50.61;101648.91;1039569;28;879;-64
2022/04/26 07:59:30;;;;;;;;;;;;;;;18.43;51.09;101644.00;1037197;28;610;-64
2022/04/26 08:00:21;;;;;;;;;;;;;;;18.43;51.67;101652.09;1033305;28;681;-64
2022/04/26 08:01:11;;;;;;;;;;;;;;;18.36;51.48;101643.66;1034085;28;674;-64
2022/04/26 08:02:02;;;;;;;;;;;;;;;18.30;51.92;101653.13;1033000;28;674;-64
2022/04/26 08:02:52;;;;;;;;;;;;;;;18.27;51.59;101649.84;1034811;28;649;-64
2022/04/26 08:03:43;;;;;;;;;;;;;;;18.11;51.85;101654.78;1033771;28;690;-64
2022/04/26 08:04:33;;;;;;;;;;;;;;;18.16;52.00;101655.28;1033151;28;679;-64
2022/04/26 08:05:23;;;;;;;;;;;;;;;18.19;52.30;101653.19;1033936;28;646;-64
2022/04/26 08:06:14;;;;;;;;;;;;;;;18.23;51.77;101664.56;1032828;28;643;-64
2022/04/26 08:07:04;;;;;;;;;;;;;;;18.24;51.08;101653.66;1034523;28;709;-63